Time;durP1;ratioP1;P1;durP2;ratioP2;P2;SDS_P1;SDS_P2;PMS_P1;PMS_P2;Temp;Humidity;BMP_temperature;BMP_pressure;BME280_temperature;BME280_humidity;BME280_pressure;Samples;Min_cycle;Max_cycle;Signal;HPM_P1;HPM_P2
2023/07/29 00:00:50;;;;;;;10.02;7.38;;;18.50;99.90;;;;;;5073863;28;20041;-70
2023/07/29 00:03:15;;;;;;;8.82;7.05;;;18.80;99.90;;;;;;5091727;28;20035;-70
2023/07/29 00:05:41;;;;;;;8.90;6.45;;;18.70;99.90;;;;;;5091631;28;20492;-70
2023/07/29 00:08:06;;;;;;;9.68;6.90;;;18.60;99.90;;;;;;5091495;28;20454;-70
2023/07/29 00:10:33;;;;;;;8.52;6.57;;;18.80;99.90;;;;;;5091607;28;20071;-69
2023/07/29 00:12:59;;;;;;;7.53;6.60;;;18.40;99.90;;;;;;5091528;28;20035;-70
2023/07/29 00:15:24;;;;;;;8.10;6.43;;;18.40;99.90;;;;;;5091582;28;20032;-70
2023/07/29 00:17:50;;;;;;;8.68;6.70;;;18.50;99.90;;;;;;5090022;28;20047;-70
2023/07/29 00:20:15;;;;;;;9.77;6.30;;;18.90;99.90;;;;;;5091697;28;20079;-70
2023/07/29 00:22:41;;;;;;;8.93;6.47;;;18.90;99.90;;;;;;5090566;28;20044;-70
2023/07/29 00:25:07;;;;;;;9.35;6.25;;;18.40;99.90;;;;;;5091379;28;20036;-70
2023/07/29 00:27:32;;;;;;;7.25;6.30;;;18.40;99.90;;;;;;5091092;28;20032;-70
2023/07/29 00:29:58;;;;;;;9.05;5.72;;;18.70;99.90;;;;;;5091461;28;20036;-70
2023/07/29 00:32:24;;;;;;;8.25;6.50;;;18.60;99.90;;;;;;5090240;28;20454;-70
2023/07/29 00:34:49;;;;;;;12.77;6.43;;;18.80;99.90;;;;;;5090394;28;20043;-69
2023/07/29 00:37:15;;;;;;;7.60;6.80;;;18.40;99.90;;;;;;5091097;28;20499;-70
2023/07/29 00:39:40;;;;;;;8.07;6.82;;;18.80;99.90;;;;;;5091362;28;20500;-70
2023/07/29 00:42:06;;;;;;;9.63;7.03;;;19.00;99.90;;;;;;5091623;28;20044;-70
2023/07/29 00:44:32;;;;;;;9.68;6.45;;;18.80;99.90;;;;;;5091466;28;20040;-70
2023/07/29 00:47:00;;;;;;;9.95;7.05;;;18.40;99.90;;;;;;5089581;28;20511;-69
2023/07/29 00:49:26;;;;;;;11.45;6.60;;;18.50;99.90;;;;;;5091458;28;20040;-70
2023/07/29 00:51:51;;;;;;;10.20;6.32;;;18.40;99.90;;;;;;5094426;28;20510;-70
2023/07/29 00:54:17;;;;;;;8.75;6.32;;;18.80;99.90;;;;;;5093639;28;20040;-70
2023/07/29 00:56:43;;;;;;;9.90;6.57;;;18.60;99.90;;;;;;5094854;28;20036;-70
2023/07/29 00:59:08;;;;;;;9.68;6.80;;;18.40;99.90;;;;;;5095160;28;20032;-70
2023/07/29 01:01:35;;;;;;;8.02;6.25;;;18.90;99.90;;;;;;5094455;28;20032;-70
2023/07/29 01:04:00;;;;;;;8.77;6.53;;;18.40;99.90;;;;;;5094767;28;20064;-70
2023/07/29 01:06:47;;;;;;;8.70;6.13;;;18.70;99.90;;;;;;5094441;28;20096;-70
2023/07/29 01:09:30;;;;;;;8.93;7.40;;;18.40;99.90;;;;;;5094889;28;20036;-70
2023/07/29 01:11:58;;;;;;;10.40;7.53;;;18.80;99.90;;;;;;5094965;28;20040;-70
2023/07/29 01:14:38;;;;;;;8.70;6.97;;;18.80;99.90;;;;;;5094606;28;20506;-70
2023/07/29 01:17:08;;;;;;;10.65;7.65;;;18.50;99.90;;;;;;5094225;28;20036;-70
2023/07/29 01:19:49;;;;;;;9.35;7.10;;;18.30;99.90;;;;;;5094840;28;20040;-70
2023/07/29 01:22:16;;;;;;;11.55;7.90;;;18.30;99.90;;;;;;5094523;28;20051;-70
2023/07/29 01:24:41;;;;;;;11.27;7.88;;;18.40;99.90;;;;;;5078069;28;20044;-70
2023/07/29 01:27:07;;;;;;;9.93;7.70;;;18.70;99.90;;;;;;5094162;28;20047;-70
2023/07/29 01:29:33;;;;;;;11.75;8.25;;;18.50;99.90;;;;;;5096338;28;20042;-70
2023/07/29 01:32:06;;;;;;;12.85;8.27;;;18.10;99.90;;;;;;5095388;28;20044;-70
2023/07/29 01:34:42;;;;;;;14.73;7.65;;;18.10;99.90;;;;;;5094421;28;20047;-69
2023/07/29 01:37:14;;;;;;;12.88;7.70;;;17.90;99.90;;;;;;5094260;28;20043;-69
2023/07/29 01:39:42;;;;;;;10.05;7.47;;;17.90;99.90;;;;;;5094439;28;20072;-70
2023/07/29 01:42:08;;;;;;;11.07;7.88;;;18.30;99.90;;;;;;5094215;28;20051;-70
2023/07/29 01:44:35;;;;;;;11.90;7.38;;;18.00;99.90;;;;;;5094213;28;20036;-69
2023/07/29 01:47:01;;;;;;;12.80;8.15;;;17.90;99.90;;;;;;5093669;28;20032;-69
2023/07/29 01:49:26;;;;;;;13.40;7.90;;;17.80;99.90;;;;;;5094238;28;20410;-69
2023/07/29 01:51:52;;;;;;;13.60;8.45;;;18.00;99.90;;;;;;5094007;28;20036;-69
2023/07/29 01:54:17;;;;;;;12.63;7.38;;;17.80;99.90;;;;;;5093975;28;20040;-69
2023/07/29 01:56:43;;;;;;;9.55;7.22;;;18.30;99.90;;;;;;5093554;28;20025;-69
2023/07/29 01:59:08;;;;;;;11.30;8.10;;;18.20;99.90;;;;;;5092923;28;20040;-69
2023/07/29 02:01:34;;;;;;;9.70;6.97;;;18.10;99.90;;;;;;5092186;28;20082;-70
2023/07/29 02:04:00;;;;;;;9.88;7.45;;;17.60;99.90;;;;;;5092165;28;20517;-69
2023/07/29 02:06:26;;;;;;;10.45;7.20;;;18.20;99.90;;;;;;5093534;28;20407;-69
2023/07/29 02:08:52;;;;;;;10.40;7.43;;;18.00;99.90;;;;;;5093724;28;20047;-70
2023/07/29 02:11:20;;;;;;;11.77;8.18;;;17.60;99.90;;;;;;5092142;28;20040;-70
2023/07/29 02:13:45;;;;;;;9.25;7.03;;;18.10;99.90;;;;;;5093708;28;20036;-69
2023/07/29 02:16:11;;;;;;;12.90;7.65;;;17.60;99.90;;;;;;5093306;28;20044;-70
2023/07/29 02:18:37;;;;;;;11.07;7.75;;;17.80;99.90;;;;;;5092034;28;20040;-70
2023/07/29 02:21:02;;;;;;;10.63;7.50;;;17.70;99.90;;;;;;5093414;28;20040;-70
2023/07/29 02:23:28;;;;;;;12.32;6.93;;;17.60;99.90;;;;;;5093435;28;20059;-70
2023/07/29 02:25:54;;;;;;;12.35;7.80;;;17.80;99.90;;;;;;5113530;22;20027;-72
2023/07/29 02:28:19;;;;;;;13.88;7.72;;;17.50;99.90;;;;;;5054149;28;20040;-72
2023/07/29 02:30:45;;;;;;;12.85;7.32;;;17.40;99.90;;;;;;5055221;28;20025;-72
2023/07/29 02:33:10;;;;;;;9.68;7.13;;;17.60;99.90;;;;;;5054967;28;20553;-72
2023/07/29 02:35:36;;;;;;;12.27;8.00;;;17.40;99.90;;;;;;5054687;28;20151;-73
2023/07/29 02:38:01;;;;;;;8.95;6.68;;;17.90;99.90;;;;;;5072622;28;20037;-72
2023/07/29 02:40:29;;;;;;;12.18;7.20;;;17.60;99.90;;;;;;5054796;28;20041;-72
2023/07/29 02:42:54;;;;;;;12.93;8.10;;;17.50;99.90;;;;;;5072731;28;20096;-72
2023/07/29 02:45:20;;;;;;;11.48;7.40;;;17.70;99.90;;;;;;5054581;28;20450;-72
2023/07/29 02:47:46;;;;;;;10.18;7.97;;;17.90;99.90;;;;;;5072320;28;20477;-72
2023/07/29 02:50:12;;;;;;;11.38;7.93;;;17.80;99.90;;;;;;5054988;28;20040;-72
2023/07/29 02:52:37;;;;;;;10.10;7.18;;;17.40;99.90;;;;;;5054384;28;20634;-72
2023/07/29 02:55:03;;;;;;;11.98;6.97;;;17.50;99.90;;;;;;5053726;28;20032;-72
2023/07/29 02:57:29;;;;;;;8.68;6.43;;;17.40;99.90;;;;;;5054076;28;20098;-72
2023/07/29 02:59:54;;;;;;;9.93;6.88;;;17.80;99.90;;;;;;5072380;28;20119;-72
2023/07/29 03:02:20;;;;;;;14.07;7.70;;;17.40;99.90;;;;;;5072487;28;20458;-72
2023/07/29 03:04:48;;;;;;;11.02;7.13;;;17.40;99.90;;;;;;5072198;28;20465;-72
2023/07/29 03:07:13;;;;;;;12.23;7.25;;;17.30;99.90;;;;;;5053808;28;20047;-72
2023/07/29 03:09:41;;;;;;;12.63;7.43;;;17.60;99.90;;;;;;5054448;28;20037;-72
2023/07/29 03:12:07;;;;;;;11.35;7.03;;;17.50;99.90;;;;;;5054146;28;20472;-72
2023/07/29 03:14:33;;;;;;;11.98;6.18;;;17.80;99.90;;;;;;5054062;28;20118;-72
2023/07/29 03:17:02;;;;;;;9.88;6.20;;;17.40;99.90;;;;;;5053607;28;20119;-72
2023/07/29 03:19:28;;;;;;;7.93;6.22;;;17.50;99.90;;;;;;5054079;28;20124;-72
2023/07/29 03:21:53;;;;;;;11.20;6.63;;;17.70;99.90;;;;;;5072023;28;20076;-72
2023/07/29 03:24:19;;;;;;;9.48;6.00;;;17.30;99.90;;;;;;5053958;28;20036;-72
2023/07/29 03:26:44;;;;;;;9.10;5.28;;;17.30;99.90;;;;;;5053463;28;20045;-72
2023/07/29 03:29:10;;;;;;;8.50;5.60;;;17.70;99.90;;;;;;5053969;28;20037;-72
2023/07/29 03:31:35;;;;;;;9.07;5.82;;;17.60;99.90;;;;;;5053965;28;20090;-72
2023/07/29 03:34:01;;;;;;;6.15;5.03;;;17.60;99.90;;;;;;5054236;28;20090;-72
2023/07/29 03:36:26;;;;;;;8.05;5.13;;;17.40;99.90;;;;;;5053662;28;20048;-72
2023/07/29 03:38:52;;;;;;;8.02;4.80;;;17.50;99.90;;;;;;5071708;28;20713;-72
2023/07/29 03:41:18;;;;;;;11.65;5.32;;;17.30;99.90;;;;;;5054010;28;20033;-72
2023/07/29 03:43:43;;;;;;;7.43;4.68;;;17.50;99.90;;;;;;5037485;28;20101;-72
2023/07/29 03:46:09;;;;;;;8.45;4.80;;;17.70;99.90;;;;;;5053393;28;20043;-72
2023/07/29 03:48:34;;;;;;;8.15;5.25;;;17.30;99.90;;;;;;5053469;28;20048;-72
2023/07/29 03:51:00;;;;;;;7.28;4.68;;;17.40;99.90;;;;;;5053628;28;20032;-72
2023/07/29 03:53:25;;;;;;;6.65;5.03;;;17.50;99.90;;;;;;5053134;28;20162;-71
2023/07/29 03:55:51;;;;;;;8.18;5.05;;;17.30;99.90;;;;;;5071375;28;20044;-72
2023/07/29 03:58:16;;;;;;;6.43;4.63;;;17.80;99.90;;;;;;5053474;28;20048;-72
2023/07/29 04:00:42;;;;;;;6.93;4.53;;;17.60;99.90;;;;;;5053085;28;20492;-72
2023/07/29 04:03:08;;;;;;;7.65;4.38;;;17.80;99.90;;;;;;5035674;28;20036;-72
2023/07/29 04:05:34;;;;;;;8.27;4.88;;;17.40;99.90;;;;;;5060571;28;20068;-72
2023/07/29 04:08:00;;;;;;;9.88;4.70;;;17.70;99.90;;;;;;5059297;28;20436;-72
2023/07/29 04:10:25;;;;;;;6.05;4.15;;;17.80;99.90;;;;;;5070015;28;20043;-73
2023/07/29 04:12:51;;;;;;;7.68;4.20;;;17.70;99.90;;;;;;5064819;28;20047;-72
2023/07/29 04:15:16;;;;;;;7.80;4.68;;;17.30;99.90;;;;;;5059768;28;20048;-73
2023/07/29 04:17:42;;;;;;;8.18;4.03;;;17.30;99.90;;;;;;5059652;28;20068;-73
2023/07/29 04:20:08;;;;;;;5.32;3.90;;;17.20;99.90;;;;;;5067664;28;20249;-72
2023/07/29 04:22:33;;;;;;;7.35;3.90;;;17.20;99.90;;;;;;5068448;28;20078;-73
2023/07/29 04:24:59;;;;;;;6.85;3.88;;;17.80;99.90;;;;;;5068882;28;20083;-73
2023/07/29 04:27:24;;;;;;;7.05;4.05;;;17.40;99.90;;;;;;5072812;28;20044;-73
2023/07/29 04:29:50;;;;;;;10.77;4.28;;;17.80;99.90;;;;;;5056603;28;20032;-73
2023/07/29 04:32:16;;;;;;;8.55;4.25;;;17.50;99.90;;;;;;5073148;28;20041;-72
2023/07/29 04:34:41;;;;;;;5.07;3.35;;;17.20;99.90;;;;;;5073134;28;20404;-73
2023/07/29 04:37:07;;;;;;;7.00;3.88;;;17.70;99.90;;;;;;5072705;28;20052;-72
2023/07/29 04:39:33;;;;;;;8.13;3.67;;;17.80;99.90;;;;;;5072980;28;20105;-73
2023/07/29 04:41:58;;;;;;;8.45;3.45;;;17.90;99.90;;;;;;5072771;28;20041;-73
2023/07/29 04:44:24;;;;;;;6.90;3.63;;;17.80;99.90;;;;;;5072799;28;20105;-73
2023/07/29 04:46:49;;;;;;;7.00;3.70;;;17.50;99.90;;;;;;5072563;28;20136;-72
2023/07/29 04:49:15;;;;;;;4.40;3.17;;;18.00;99.90;;;;;;5074556;28;20119;-73
2023/07/29 04:51:40;;;;;;;8.68;4.43;;;17.90;99.90;;;;;;5073326;28;20042;-72
2023/07/29 04:54:06;;;;;;;5.32;4.20;;;17.90;99.90;;;;;;5056440;28;20036;-73
2023/07/29 04:56:32;;;;;;;9.05;4.43;;;17.70;99.90;;;;;;5072377;28;20082;-73
2023/07/29 04:58:57;;;;;;;7.03;4.03;;;17.90;99.90;;;;;;5072999;28;20149;-72
2023/07/29 05:01:23;;;;;;;6.35;3.53;;;17.70;99.90;;;;;;5072871;28;20087;-72
2023/07/29 05:03:48;;;;;;;6.45;3.92;;;17.90;99.90;;;;;;5056343;28;20097;-72
2023/07/29 05:06:14;;;;;;;7.88;3.80;;;17.80;99.90;;;;;;5072232;28;20076;-72
2023/07/29 05:08:39;;;;;;;6.45;3.90;;;18.20;99.90;;;;;;5072757;28;20041;-72
2023/07/29 05:11:05;;;;;;;7.78;3.83;;;18.30;99.90;;;;;;5056230;28;20055;-73
2023/07/29 05:13:30;;;;;;;5.47;3.33;;;18.10;99.90;;;;;;5072777;28;20430;-72
2023/07/29 05:15:56;;;;;;;6.28;3.97;;;18.50;99.90;;;;;;5072357;28;20043;-72
2023/07/29 05:18:22;;;;;;;5.28;3.70;;;18.40;99.90;;;;;;5073811;28;20042;-72
2023/07/29 05:20:47;;;;;;;7.10;3.58;;;17.90;99.90;;;;;;5072561;28;20048;-73
2023/07/29 05:23:13;;;;;;;7.85;3.53;;;18.30;99.90;;;;;;5072613;28;20041;-73
2023/07/29 05:25:39;;;;;;;5.85;3.08;;;18.30;99.90;;;;;;5072253;28;20047;-73
2023/07/29 05:28:04;;;;;;;6.25;2.85;;;17.90;99.90;;;;;;5072411;28;20035;-72
2023/07/29 05:30:32;;;;;;;6.25;3.33;;;18.10;99.90;;;;;;5072527;28;20527;-72
2023/07/29 05:32:57;;;;;;;5.90;3.05;;;18.30;99.90;;;;;;5072155;28;20043;-73
2023/07/29 05:35:24;;;;;;;5.65;3.17;;;18.20;99.90;;;;;;5072278;28;20036;-72
2023/07/29 05:37:50;;;;;;;5.93;3.20;;;17.80;99.90;;;;;;5070803;28;20036;-72
2023/07/29 05:40:15;;;;;;;4.75;2.97;;;18.20;99.90;;;;;;5072667;28;20419;-72
2023/07/29 05:42:41;;;;;;;5.38;3.03;;;17.90;99.90;;;;;;5056066;28;20106;-72
2023/07/29 05:45:07;;;;;;;5.07;3.28;;;17.80;99.90;;;;;;5072501;28;20510;-72
2023/07/29 05:47:33;;;;;;;3.72;2.83;;;17.90;99.90;;;;;;5071957;28;20041;-72
2023/07/29 05:49:59;;;;;;;8.07;4.20;;;18.20;99.90;;;;;;5072212;28;20043;-72
2023/07/29 05:52:25;;;;;;;6.95;3.28;;;18.10;99.90;;;;;;5072167;28;20045;-72
2023/07/29 05:54:51;;;;;;;6.88;3.85;;;17.80;99.90;;;;;;5055368;28;20093;-72
2023/07/29 05:57:16;;;;;;;7.15;3.42;;;18.40;99.90;;;;;;5071682;28;20612;-72
2023/07/29 05:59:42;;;;;;;4.90;3.15;;;18.00;99.90;;;;;;5073421;28;20041;-73
2023/07/29 06:02:07;;;;;;;9.40;4.10;;;18.40;99.90;;;;;;5071765;28;20046;-72
2023/07/29 06:04:34;;;;;;;4.90;3.13;;;18.30;99.90;;;;;;5071725;28;20071;-72
2023/07/29 06:07:00;;;;;;;6.22;3.40;;;18.00;99.90;;;;;;5071445;28;20094;-72
2023/07/29 06:09:25;;;;;;;7.97;3.13;;;18.20;99.90;;;;;;5071785;28;20040;-72
2023/07/29 06:11:51;;;;;;;7.60;3.03;;;18.40;99.90;;;;;;5071761;28;20072;-72
2023/07/29 06:14:17;;;;;;;6.28;3.25;;;18.40;99.90;;;;;;5071696;28;20044;-73
2023/07/29 06:16:42;;;;;;;5.63;3.17;;;18.20;99.90;;;;;;5054915;28;20079;-72
2023/07/29 06:19:08;;;;;;;4.88;2.75;;;18.20;99.90;;;;;;5071489;28;20036;-73
2023/07/29 06:21:34;;;;;;;5.95;2.88;;;18.40;99.90;;;;;;5071539;28;20048;-72
2023/07/29 06:24:00;;;;;;;6.88;3.03;;;18.10;99.90;;;;;;5071609;28;20356;-72
2023/07/29 06:26:26;;;;;;;5.55;3.03;;;18.30;99.90;;;;;;5071132;28;20119;-72
2023/07/29 06:28:51;;;;;;;4.60;2.33;;;18.20;99.90;;;;;;5071537;28;20045;-72
2023/07/29 06:31:17;;;;;;;5.35;2.47;;;18.40;99.90;;;;;;5071630;28;20029;-72
2023/07/29 06:33:42;;;;;;;3.80;2.55;;;17.80;99.90;;;;;;5071296;28;20169;-72
2023/07/29 06:36:08;;;;;;;6.85;2.97;;;17.80;99.90;;;;;;5070940;28;20043;-72
2023/07/29 06:38:33;;;;;;;4.80;2.75;;;17.80;99.90;;;;;;5071257;28;20089;-72
2023/07/29 06:40:59;;;;;;;4.93;2.70;;;18.10;99.90;;;;;;5071209;28;20036;-72
2023/07/29 06:43:25;;;;;;;6.47;2.70;;;18.20;99.90;;;;;;5071375;28;20044;-71
2023/07/29 06:45:51;;;;;;;6.10;3.15;;;18.60;99.90;;;;;;5071082;28;20036;-72
2023/07/29 06:48:18;;;;;;;4.75;2.55;;;18.90;99.90;;;;;;5054318;28;20097;-71
2023/07/29 06:50:44;;;;;;;5.00;2.42;;;19.20;99.90;;;;;;5071349;28;20070;-72
2023/07/29 06:53:09;;;;;;;4.10;2.17;;;19.70;99.90;;;;;;5071171;28;20538;-72
2023/07/29 06:55:35;;;;;;;5.32;2.60;;;19.60;99.90;;;;;;5071065;28;20079;-72
2023/07/29 06:58:01;;;;;;;5.10;2.53;;;20.00;99.90;;;;;;5070628;28;20134;-72
2023/07/29 07:00:26;;;;;;;3.92;2.40;;;19.40;99.90;;;;;;5070932;28;20074;-72
2023/07/29 07:02:52;;;;;;;7.78;2.50;;;19.80;99.90;;;;;;5072076;28;20094;-72
2023/07/29 07:05:17;;;;;;;7.07;2.53;;;19.70;99.90;;;;;;5070747;28;20040;-72
2023/07/29 07:07:43;;;;;;;4.75;2.70;;;19.60;99.90;;;;;;5070390;28;20041;-72
2023/07/29 07:10:09;;;;;;;8.02;2.40;;;19.80;99.90;;;;;;5070699;28;20033;-72
2023/07/29 07:12:34;;;;;;;6.47;2.75;;;19.30;99.90;;;;;;5070666;28;20450;-72
2023/07/29 07:15:00;;;;;;;5.45;3.00;;;19.20;99.90;;;;;;5070583;28;20041;-72
2023/07/29 07:17:26;;;;;;;5.85;3.05;;;19.30;99.90;;;;;;5070165;28;20041;-72
2023/07/29 07:19:51;;;;;;;5.13;2.72;;;19.20;99.90;;;;;;5070426;28;20412;-72
2023/07/29 07:22:17;;;;;;;5.50;3.20;;;19.70;99.90;;;;;;5070419;28;20085;-72
2023/07/29 07:24:43;;;;;;;7.95;2.50;;;19.30;99.90;;;;;;5070678;28;20072;-71
2023/07/29 07:27:08;;;;;;;7.82;3.75;;;19.70;99.90;;;;;;5069926;28;20041;-72
2023/07/29 07:29:34;;;;;;;6.18;3.78;;;19.40;99.90;;;;;;5070405;28;20463;-72
2023/07/29 07:31:59;;;;;;;11.05;4.13;;;19.80;99.90;;;;;;5070477;28;20037;-72
2023/07/29 07:34:25;;;;;;;8.15;3.67;;;19.70;99.90;;;;;;5071731;28;20120;-72
2023/07/29 07:36:51;;;;;;;9.75;3.78;;;19.30;99.90;;;;;;5057152;28;20039;-72
2023/07/29 07:39:16;;;;;;;8.65;4.28;;;19.00;99.90;;;;;;5062923;28;20076;-72
2023/07/29 07:41:42;;;;;;;6.80;3.38;;;19.20;99.90;;;;;;5027668;28;20039;-72
2023/07/29 07:44:08;;;;;;;7.53;4.30;;;19.40;99.90;;;;;;5051369;28;20115;-72
2023/07/29 07:46:34;;;;;;;9.48;3.90;;;19.40;99.90;;;;;;5033137;28;20047;-72
2023/07/29 07:49:00;;;;;;;11.32;3.90;;;18.90;99.90;;;;;;5033567;28;20446;-72
2023/07/29 07:51:25;;;;;;;8.13;4.10;;;19.10;99.90;;;;;;5033391;28;20036;-72
2023/07/29 07:53:51;;;;;;;7.90;3.53;;;19.30;99.90;;;;;;5033843;28;20124;-72
2023/07/29 07:56:16;;;;;;;8.57;4.40;;;19.60;99.90;;;;;;5040884;28;20045;-72
2023/07/29 07:58:42;;;;;;;6.50;4.10;;;19.70;99.90;;;;;;5043879;28;20045;-72
2023/07/29 08:01:09;;;;;;;7.18;4.28;;;20.10;99.90;;;;;;5042603;28;20040;-72
2023/07/29 08:03:35;;;;;;;6.60;3.88;;;19.80;99.90;;;;;;5050664;28;20393;-72
2023/07/29 08:06:02;;;;;;;6.88;3.92;;;19.70;99.90;;;;;;5053117;28;20036;-72
2023/07/29 08:08:28;;;;;;;7.15;4.03;;;20.20;99.90;;;;;;5053443;28;20472;-72
2023/07/29 08:10:54;;;;;;;7.72;4.20;;;20.30;99.90;;;;;;5062560;28;20122;-72
2023/07/29 08:13:21;;;;;;;7.03;4.45;;;20.10;99.90;;;;;;5059090;28;20059;-73
2023/07/29 08:15:48;;;;;;;10.65;4.13;;;20.20;99.90;;;;;;5045995;28;20522;-73
2023/07/29 08:18:13;;;;;;;8.27;3.50;;;19.90;99.90;;;;;;5052884;28;20041;-72
2023/07/29 08:20:39;;;;;;;6.85;3.40;;;20.30;99.90;;;;;;5053293;28;20058;-72
2023/07/29 08:23:04;;;;;;;6.35;4.00;;;20.30;99.90;;;;;;5071141;28;20052;-72
2023/07/29 08:25:30;;;;;;;7.78;3.38;;;20.40;99.90;;;;;;5053182;28;20036;-72
2023/07/29 08:27:55;;;;;;;6.25;3.42;;;20.60;99.90;;;;;;5087969;22;20052;-70
2023/07/29 08:30:21;;;;;;;6.03;2.92;;;20.90;99.90;;;;;;5071228;28;20487;-70
2023/07/29 08:32:47;;;;;;;3.72;2.25;;;21.40;99.90;;;;;;5071572;28;20462;-70
2023/07/29 08:35:12;;;;;;;4.45;2.90;;;21.20;99.90;;;;;;5071450;28;20044;-70
2023/07/29 08:37:38;;;;;;;4.05;2.35;;;21.70;99.90;;;;;;5061341;28;20086;-71
2023/07/29 08:40:04;;;;;;;7.00;2.45;;;21.60;99.90;;;;;;5050977;28;20044;-72
2023/07/29 08:42:32;;;;;;;5.90;3.00;;;22.00;99.90;;;;;;5053792;28;20087;-70
2023/07/29 08:45:06;;;;;;;4.35;2.10;;;21.90;99.90;;;;;;5050828;28;20044;-69
2023/07/29 08:47:31;;;;;;;4.88;2.42;;;22.00;99.90;;;;;;5053917;28;20077;-70
2023/07/29 08:49:58;;;;;;;4.45;2.60;;;21.90;99.90;;;;;;5071355;28;20123;-70
2023/07/29 08:52:25;;;;;;;7.10;2.47;;;22.00;99.90;;;;;;5064644;28;20565;-71
2023/07/29 08:54:52;;;;;;;5.45;2.22;;;21.90;99.90;;;;;;5070726;28;20058;-71
2023/07/29 08:57:19;;;;;;;9.77;2.08;;;21.80;99.90;;;;;;5069932;28;20543;-71
2023/07/29 08:59:45;;;;;;;5.63;2.33;;;21.20;99.90;;;;;;5071112;28;20045;-71
2023/07/29 09:02:11;;;;;;;6.30;2.65;;;21.30;99.90;;;;;;5070753;28;20111;-71
2023/07/29 09:04:37;;;;;;;5.63;2.58;;;20.90;99.90;;;;;;5069450;28;20120;-71
2023/07/29 09:07:03;;;;;;;5.35;2.25;;;20.80;99.90;;;;;;5070360;28;20111;-71
2023/07/29 09:09:29;;;;;;;5.20;2.40;;;20.60;99.90;;;;;;5070852;28;20041;-71
2023/07/29 09:11:55;;;;;;;4.40;2.67;;;21.10;99.90;;;;;;5072009;28;20503;-71
2023/07/29 09:14:20;;;;;;;7.18;2.65;;;21.40;99.90;;;;;;5074581;28;20036;-72
2023/07/29 09:16:46;;;;;;;7.15;2.70;;;21.50;99.90;;;;;;5073910;28;20503;-71
2023/07/29 09:19:12;;;;;;;5.40;2.08;;;21.60;99.90;;;;;;5072940;28;20040;-71
2023/07/29 09:21:40;;;;;;;4.32;2.20;;;21.30;99.90;;;;;;5074091;28;20039;-71
2023/07/29 09:24:07;;;;;;;4.57;2.42;;;21.30;99.90;;;;;;5074146;28;20449;-71
2023/07/29 09:26:33;;;;;;;5.85;2.42;;;21.20;99.90;;;;;;5073333;28;20044;-72
2023/07/29 09:28:59;;;;;;;4.15;2.53;;;21.10;99.90;;;;;;5074162;28;20044;-71
2023/07/29 09:31:27;;;;;;;5.10;2.40;;;21.30;99.90;;;;;;5074215;28;20076;-71
2023/07/29 09:34:00;;;;;;;6.25;2.35;;;21.30;99.90;;;;;;5074048;28;20059;-71
2023/07/29 09:36:27;;;;;;;3.35;2.20;;;20.90;99.90;;;;;;5073856;28;20048;-71
2023/07/29 09:38:57;;;;;;;4.88;2.30;;;21.40;99.90;;;;;;5073594;28;20440;-71
2023/07/29 09:41:27;;;;;;;4.75;2.22;;;21.70;99.90;;;;;;5073972;28;20048;-72
2023/07/29 09:43:57;;;;;;;3.03;2.13;;;22.30;99.90;;;;;;5073725;28;20037;-71
2023/07/29 09:46:27;;;;;;;3.13;1.98;;;22.30;99.90;;;;;;5073485;28;20052;-71
2023/07/29 09:48:56;;;;;;;4.18;2.33;;;22.40;99.90;;;;;;5073470;28;20041;-71
2023/07/29 09:51:22;;;;;;;7.93;2.03;;;22.20;99.90;;;;;;5073497;28;20495;-71
2023/07/29 09:53:49;;;;;;;6.03;1.95;;;22.10;99.90;;;;;;5072204;28;20076;-71
2023/07/29 09:56:15;;;;;;;4.70;2.17;;;21.90;99.90;;;;;;5073389;28;20135;-71
2023/07/29 09:58:45;;;;;;;5.35;1.92;;;21.80;99.90;;;;;;5072225;28;20048;-71
2023/07/29 10:01:10;;;;;;;2.80;1.48;;;21.80;99.90;;;;;;5072048;28;20547;-71
2023/07/29 10:03:37;;;;;;;4.35;2.00;;;21.80;99.90;;;;;;5073273;28;20040;-71
2023/07/29 10:06:03;;;;;;;5.32;1.70;;;22.20;99.90;;;;;;5072891;28;20036;-71
2023/07/29 10:08:35;;;;;;;3.25;1.80;;;21.90;99.90;;;;;;5072072;28;20059;-72
2023/07/29 10:11:01;;;;;;;3.30;1.83;;;22.00;99.90;;;;;;5072322;28;20167;-72
2023/07/29 10:13:27;;;;;;;6.90;1.98;;;21.80;99.90;;;;;;5071978;28;20045;-71
2023/07/29 10:15:56;;;;;;;2.03;1.40;;;21.90;99.90;;;;;;5073181;28;20038;-71
2023/07/29 10:18:23;;;;;;;2.03;1.55;;;22.10;99.90;;;;;;5072671;28;20041;-71
2023/07/29 10:20:51;;;;;;;4.13;1.60;;;22.50;99.90;;;;;;5070249;28;20051;-72
2023/07/29 10:23:18;;;;;;;4.32;1.77;;;22.60;99.90;;;;;;5071627;28;20483;-71
2023/07/29 10:25:50;;;;;;;6.10;1.98;;;22.60;99.90;;;;;;5072929;28;20099;-71
2023/07/29 10:28:18;;;;;;;3.45;1.35;;;22.60;99.90;;;;;;5072113;28;20499;-72
2023/07/29 10:30:44;;;;;;;3.63;1.50;;;22.90;99.90;;;;;;5071039;28;20029;-69
2023/07/29 10:33:10;;;;;;;3.10;1.55;;;22.70;99.90;;;;;;5072056;28;20071;-69
2023/07/29 10:35:37;;;;;;;2.40;1.67;;;22.80;99.90;;;;;;5072488;28;20074;-69
2023/07/29 10:38:04;;;;;;;8.35;1.73;;;22.70;99.90;;;;;;5072500;28;20038;-71
2023/07/29 10:40:45;;;;;;;3.22;1.50;;;22.70;99.90;;;;;;5072763;28;20053;-71
2023/07/29 10:43:12;;;;;;;3.20;1.65;;;22.60;99.90;;;;;;5072619;28;20060;-71
2023/07/29 10:45:40;;;;;;;4.75;2.10;;;23.10;99.90;;;;;;5072102;28;20124;-71
2023/07/29 10:48:34;;;;;;;2.08;1.30;;;23.30;99.90;;;;;;5071790;28;20060;-71
2023/07/29 10:51:26;;;;;;;3.67;1.50;;;23.10;99.90;;;;;;5072258;28;20052;-71
2023/07/29 10:53:54;;;;;;;5.97;1.90;;;23.20;99.90;;;;;;5072383;28;20048;-71
2023/07/29 10:56:49;;;;;;;4.22;1.88;;;23.30;99.90;;;;;;5072048;28;20047;-71
2023/07/29 10:59:17;;;;;;;5.20;1.95;;;23.50;99.90;;;;;;5070262;28;20524;-71
2023/07/29 11:02:02;;;;;;;3.85;1.95;;;23.50;99.90;;;;;;5072316;28;20067;-72
2023/07/29 11:04:30;;;;;;;3.47;1.98;;;23.20;99.90;;;;;;5072130;28;20119;-69
2023/07/29 11:09:41;;;;;;;5.28;2.00;;;23.00;99.90;;;;;;5072073;28;20086;-71
2023/07/29 11:12:39;;;;;;;7.53;6.78;;;22.70;99.90;;;;;;5070923;28;20445;-71
2023/07/29 11:15:14;;;;;;;31.67;23.58;;;22.50;99.90;;;;;;5072036;28;20048;-71
2023/07/29 11:17:45;;;;;;;14.70;9.40;;;22.40;99.90;;;;;;5070284;28;20062;-71
2023/07/29 11:20:12;;;;;;;16.33;9.75;;;22.10;99.90;;;;;;5070500;28;20531;-71
2023/07/29 11:22:38;;;;;;;79.97;60.63;;;22.00;99.90;;;;;;5070367;28;20436;-71
2023/07/29 11:25:07;;;;;;;31.42;22.75;;;21.60;99.90;;;;;;5071716;28;20051;-71
2023/07/29 11:27:33;;;;;;;61.30;42.03;;;21.50;99.90;;;;;;5071243;28;20495;-71
2023/07/29 11:30:01;;;;;;;20.77;13.50;;;21.30;99.90;;;;;;5070478;28;20072;-71
2023/07/29 11:32:27;;;;;;;12.73;10.75;;;20.90;99.90;;;;;;5071852;28;20123;-71
2023/07/29 11:34:52;;;;;;;21.33;17.60;;;21.00;99.90;;;;;;5070867;28;20044;-71
2023/07/29 11:37:20;;;;;;;19.58;16.95;;;20.80;99.90;;;;;;5071184;28;20119;-71
2023/07/29 11:39:46;;;;;;;23.50;17.23;;;21.00;99.90;;;;;;5071461;28;20060;-71
2023/07/29 11:42:13;;;;;;;88.68;63.13;;;21.00;99.90;;;;;;5071527;28;20042;-70
2023/07/29 11:44:38;;;;;;;16.55;12.80;;;21.10;99.90;;;;;;5070075;28;20128;-71
2023/07/29 11:47:08;;;;;;;46.22;41.17;;;21.10;99.90;;;;;;5071068;28;20127;-71
2023/07/29 11:49:35;;;;;;;26.30;23.45;;;21.40;99.90;;;;;;5071369;28;20110;-71
2023/07/29 11:52:02;;;;;;;8.93;5.72;;;21.40;99.90;;;;;;5070343;28;20500;-71
2023/07/29 11:54:28;;;;;;;7.50;5.50;;;21.60;99.90;;;;;;5071343;28;20041;-71
2023/07/29 11:56:55;;;;;;;8.27;4.93;;;21.70;99.90;;;;;;5071196;28;20462;-71
2023/07/29 11:59:20;;;;;;;14.55;13.00;;;21.30;99.90;;;;;;5069979;28;20072;-71
2023/07/29 12:01:46;;;;;;;12.13;9.07;;;21.20;99.90;;;;;;5070259;28;20086;-71
2023/07/29 12:04:12;;;;;;;83.00;53.78;;;21.40;99.90;;;;;;5071179;28;20118;-71
2023/07/29 12:06:38;;;;;;;64.68;41.60;;;21.70;99.90;;;;;;5070831;28;20094;-71
2023/07/29 12:09:04;;;;;;;140.73;105.07;;;21.60;99.90;;;;;;5071198;28;20557;-71
2023/07/29 12:11:30;;;;;;;38.50;27.95;;;21.70;99.90;;;;;;5071574;28;20116;-71
2023/07/29 12:13:56;;;;;;;22.23;17.08;;;22.00;99.90;;;;;;5071457;28;20041;-71
2023/07/29 12:16:21;;;;;;;79.30;55.35;;;22.10;99.90;;;;;;5070950;28;20041;-71
2023/07/29 12:18:49;;;;;;;56.58;47.70;;;22.10;99.90;;;;;;5070911;28;20052;-71
2023/07/29 12:21:15;;;;;;;23.80;16.50;;;21.90;99.90;;;;;;5071161;28;20141;-71
2023/07/29 12:23:40;;;;;;;22.30;17.77;;;21.50;99.90;;;;;;5071153;28;20036;-71
2023/07/29 12:26:06;;;;;;;14.13;11.50;;;21.40;99.90;;;;;;5070941;28;20356;-71
2023/07/29 12:28:32;;;;;;;12.73;8.90;;;21.40;99.90;;;;;;5071142;28;20095;-71
2023/07/29 12:30:57;;;;;;;14.18;9.82;;;21.30;99.90;;;;;;5071205;28;20033;-71
2023/07/29 12:33:33;;;;;;;15.05;11.70;;;21.80;99.90;;;;;;5071116;28;20033;-71
2023/07/29 12:35:59;;;;;;;11.18;7.95;;;21.80;99.90;;;;;;5070918;28;20101;-71
2023/07/29 12:38:29;;;;;;;8.63;4.82;;;22.00;99.90;;;;;;5070891;28;20612;-71
2023/07/29 12:40:55;;;;;;;4.55;3.20;;;22.10;99.90;;;;;;5071248;28;20036;-71
2023/07/29 12:43:21;;;;;;;6.00;2.80;;;22.00;99.90;;;;;;5071058;28;20039;-72